sensor_id;sensor_type;location;lat;lon;timestamp;P1;durP1;ratioP1;P2;durP2;ratioP2
27428;SDS011;14881;48.092;11.574;2022-12-18T00:00:03;73.53;;;31.88;;
27428;SDS011;14881;48.092;11.574;2022-12-18T00:02:32;69.00;;;30.58;;
27428;SDS011;14881;48.092;11.574;2022-12-18T00:05:00;75.07;;;31.73;;
27428;SDS011;14881;48.092;11.574;2022-12-18T00:07:28;71.82;;;31.75;;
27428;SDS011;14881;48.092;11.574;2022-12-18T00:09:56;76.07;;;31.80;;
27428;SDS011;14881;48.092;11.574;2022-12-18T00:12:25;70.93;;;29.40;;
27428;SDS011;14881;48.092;11.574;2022-12-18T00:14:55;78.40;;;31.13;;
27428;SDS011;14881;48.092;11.574;2022-12-18T00:17:23;70.82;;;31.38;;
27428;SDS011;14881;48.092;11.574;2022-12-18T00:19:50;68.00;;;30.77;;
27428;SDS011;14881;48.092;11.574;2022-12-18T00:22:18;72.50;;;31.67;;
27428;SDS011;14881;48.092;11.574;2022-12-18T00:24:46;72.78;;;30.25;;
27428;SDS011;14881;48.092;11.574;2022-12-18T00:27:14;71.90;;;29.10;;
27428;SDS011;14881;48.092;11.574;2022-12-18T00:29:45;66.25;;;27.85;;
27428;SDS011;14881;48.092;11.574;2022-12-18T00:32:13;72.78;;;29.13;;
27428;SDS011;14881;48.092;11.574;2022-12-18T00:34:40;70.35;;;30.60;;
27428;SDS011;14881;48.092;11.574;2022-12-18T00:37:08;65.55;;;27.17;;
27428;SDS011;14881;48.092;11.574;2022-12-18T00:39:42;64.72;;;28.70;;
27428;SDS011;14881;48.092;11.574;2022-12-18T00:42:10;64.70;;;27.38;;
27428;SDS011;14881;48.092;11.574;2022-12-18T00:44:59;70.57;;;27.58;;
27428;SDS011;14881;48.092;11.574;2022-12-18T00:47:26;77.00;;;29.25;;
27428;SDS011;14881;48.092;11.574;2022-12-18T00:49:54;68.47;;;28.90;;
27428;SDS011;14881;48.092;11.574;2022-12-18T00:52:22;69.55;;;27.38;;
27428;SDS011;14881;48.092;11.574;2022-12-18T00:54:52;71.82;;;28.55;;
27428;SDS011;14881;48.092;11.574;2022-12-18T00:57:19;66.13;;;28.25;;
27428;SDS011;14881;48.092;11.574;2022-12-18T00:59:47;67.13;;;28.23;;
27428;SDS011;14881;48.092;11.574;2022-12-18T01:02:16;64.88;;;28.55;;
27428;SDS011;14881;48.092;11.574;2022-12-18T01:04:44;65.90;;;28.70;;
27428;SDS011;14881;48.092;11.574;2022-12-18T01:07:12;63.67;;;27.52;;
27428;SDS011;14881;48.092;11.574;2022-12-18T01:09:40;66.50;;;27.70;;
27428;SDS011;14881;48.092;11.574;2022-12-18T01:12:07;68.25;;;27.77;;
27428;SDS011;14881;48.092;11.574;2022-12-18T01:14:35;63.33;;;27.45;;
27428;SDS011;14881;48.092;11.574;2022-12-18T01:17:04;64.90;;;28.70;;
27428;SDS011;14881;48.092;11.574;2022-12-18T01:19:33;62.58;;;26.33;;
27428;SDS011;14881;48.092;11.574;2022-12-18T01:22:00;68.15;;;27.15;;
27428;SDS011;14881;48.092;11.574;2022-12-18T01:24:28;61.00;;;27.50;;
27428;SDS011;14881;48.092;11.574;2022-12-18T01:26:56;67.70;;;27.30;;
27428;SDS011;14881;48.092;11.574;2022-12-18T01:29:24;66.82;;;28.17;;
27428;SDS011;14881;48.092;11.574;2022-12-18T01:31:54;66.45;;;28.40;;
27428;SDS011;14881;48.092;11.574;2022-12-18T01:34:22;62.42;;;26.65;;
27428;SDS011;14881;48.092;11.574;2022-12-18T01:36:51;71.07;;;28.20;;
27428;SDS011;14881;48.092;11.574;2022-12-18T01:39:19;70.18;;;29.75;;
27428;SDS011;14881;48.092;11.574;2022-12-18T01:41:47;70.60;;;28.00;;
27428;SDS011;14881;48.092;11.574;2022-12-18T01:44:51;70.88;;;29.13;;
27428;SDS011;14881;48.092;11.574;2022-12-18T01:47:23;75.72;;;29.02;;
27428;SDS011;14881;48.092;11.574;2022-12-18T01:49:53;73.57;;;27.80;;
27428;SDS011;14881;48.092;11.574;2022-12-18T01:52:23;68.80;;;28.42;;
27428;SDS011;14881;48.092;11.574;2022-12-18T01:54:53;72.93;;;28.73;;
27428;SDS011;14881;48.092;11.574;2022-12-18T01:57:23;77.55;;;29.98;;
27428;SDS011;14881;48.092;11.574;2022-12-18T01:59:52;68.70;;;27.98;;
27428;SDS011;14881;48.092;11.574;2022-12-18T02:02:24;69.30;;;28.75;;
27428;SDS011;14881;48.092;11.574;2022-12-18T02:04:55;68.03;;;28.23;;
27428;SDS011;14881;48.092;11.574;2022-12-18T02:07:25;75.68;;;29.73;;
27428;SDS011;14881;48.092;11.574;2022-12-18T02:10:03;77.03;;;28.83;;
27428;SDS011;14881;48.092;11.574;2022-12-18T02:12:42;81.25;;;30.90;;
27428;SDS011;14881;48.092;11.574;2022-12-18T02:15:14;73.38;;;30.88;;
27428;SDS011;14881;48.092;11.574;2022-12-18T02:17:47;82.68;;;32.28;;
27428;SDS011;14881;48.092;11.574;2022-12-18T02:20:20;86.93;;;32.25;;
27428;SDS011;14881;48.092;11.574;2022-12-18T02:22:58;78.38;;;31.48;;
27428;SDS011;14881;48.092;11.574;2022-12-18T02:25:40;85.20;;;33.17;;
27428;SDS011;14881;48.092;11.574;2022-12-18T02:28:20;90.53;;;32.88;;
27428;SDS011;14881;48.092;11.574;2022-12-18T02:30:53;81.57;;;30.90;;
27428;SDS011;14881;48.092;11.574;2022-12-18T02:33:26;86.85;;;34.63;;
27428;SDS011;14881;48.092;11.574;2022-12-18T02:35:56;84.63;;;32.08;;
27428;SDS011;14881;48.092;11.574;2022-12-18T02:38:26;78.65;;;31.85;;
27428;SDS011;14881;48.092;11.574;2022-12-18T02:40:58;86.45;;;31.90;;
27428;SDS011;14881;48.092;11.574;2022-12-18T02:43:27;84.05;;;31.75;;
27428;SDS011;14881;48.092;11.574;2022-12-18T02:45:57;78.13;;;30.45;;
27428;SDS011;14881;48.092;11.574;2022-12-18T02:48:27;79.47;;;31.67;;
27428;SDS011;14881;48.092;11.574;2022-12-18T02:50:59;84.88;;;33.88;;
27428;SDS011;14881;48.092;11.574;2022-12-18T02:53:33;87.53;;;34.17;;
27428;SDS011;14881;48.092;11.574;2022-12-18T02:56:09;87.43;;;34.88;;
27428;SDS011;14881;48.092;11.574;2022-12-18T03:01:15;93.45;;;34.50;;
27428;SDS011;14881;48.092;11.574;2022-12-18T03:03:47;93.22;;;34.45;;
27428;SDS011;14881;48.092;11.574;2022-12-18T03:06:20;77.32;;;32.72;;
27428;SDS011;14881;48.092;11.574;2022-12-18T03:08:52;86.70;;;33.17;;
27428;SDS011;14881;48.092;11.574;2022-12-18T03:11:27;82.57;;;32.42;;
27428;SDS011;14881;48.092;11.574;2022-12-18T03:14:15;85.60;;;33.40;;
27428;SDS011;14881;48.092;11.574;2022-12-18T03:16:45;84.30;;;31.65;;
27428;SDS011;14881;48.092;11.574;2022-12-18T03:19:19;88.80;;;34.08;;
27428;SDS011;14881;48.092;11.574;2022-12-18T03:21:52;79.65;;;34.55;;
27428;SDS011;14881;48.092;11.574;2022-12-18T03:24:22;81.70;;;31.58;;
27428;SDS011;14881;48.092;11.574;2022-12-18T03:26:55;89.43;;;35.03;;
27428;SDS011;14881;48.092;11.574;2022-12-18T03:29:28;85.20;;;32.25;;
27428;SDS011;14881;48.092;11.574;2022-12-18T03:34:33;85.78;;;32.92;;
27428;SDS011;14881;48.092;11.574;2022-12-18T03:37:04;76.85;;;31.88;;
27428;SDS011;14881;48.092;11.574;2022-12-18T03:39:33;80.00;;;32.38;;
27428;SDS011;14881;48.092;11.574;2022-12-18T03:42:04;85.40;;;33.42;;
27428;SDS011;14881;48.092;11.574;2022-12-18T03:44:36;83.47;;;31.48;;
27428;SDS011;14881;48.092;11.574;2022-12-18T03:47:13;81.95;;;32.40;;
27428;SDS011;14881;48.092;11.574;2022-12-18T03:49:45;79.20;;;31.88;;
27428;SDS011;14881;48.092;11.574;2022-12-18T03:52:18;81.18;;;32.08;;
27428;SDS011;14881;48.092;11.574;2022-12-18T03:54:50;80.43;;;32.45;;
27428;SDS011;14881;48.092;11.574;2022-12-18T03:57:23;79.38;;;31.27;;
27428;SDS011;14881;48.092;11.574;2022-12-18T03:59:56;81.45;;;31.13;;
27428;SDS011;14881;48.092;11.574;2022-12-18T04:02:28;80.80;;;33.78;;
27428;SDS011;14881;48.092;11.574;2022-12-18T04:04:58;85.85;;;32.47;;
27428;SDS011;14881;48.092;11.574;2022-12-18T04:07:29;88.63;;;32.03;;
27428;SDS011;14881;48.092;11.574;2022-12-18T04:09:58;84.68;;;31.77;;
27428;SDS011;14881;48.092;11.574;2022-12-18T04:12:29;81.40;;;32.47;;
27428;SDS011;14881;48.092;11.574;2022-12-18T04:14:57;82.30;;;33.22;;
27428;SDS011;14881;48.092;11.574;2022-12-18T04:17:25;88.60;;;32.88;;
27428;SDS011;14881;48.092;11.574;2022-12-18T04:19:53;86.05;;;33.13;;
27428;SDS011;14881;48.092;11.574;2022-12-18T04:22:20;80.90;;;32.05;;
27428;SDS011;14881;48.092;11.574;2022-12-18T04:24:48;83.22;;;32.15;;
27428;SDS011;14881;48.092;11.574;2022-12-18T04:27:15;72.60;;;30.33;;
27428;SDS011;14881;48.092;11.574;2022-12-18T04:29:45;79.38;;;32.33;;
27428;SDS011;14881;48.092;11.574;2022-12-18T04:32:12;81.13;;;34.30;;
27428;SDS011;14881;48.092;11.574;2022-12-18T04:34:40;83.90;;;32.53;;
27428;SDS011;14881;48.092;11.574;2022-12-18T04:37:07;76.57;;;30.65;;
27428;SDS011;14881;48.092;11.574;2022-12-18T04:39:35;77.90;;;31.50;;
27428;SDS011;14881;48.092;11.574;2022-12-18T04:42:03;78.60;;;32.00;;
27428;SDS011;14881;48.092;11.574;2022-12-18T04:44:30;76.10;;;31.92;;
27428;SDS011;14881;48.092;11.574;2022-12-18T04:47:00;71.25;;;29.40;;
27428;SDS011;14881;48.092;11.574;2022-12-18T04:49:27;82.82;;;31.95;;
27428;SDS011;14881;48.092;11.574;2022-12-18T04:51:55;76.53;;;30.45;;
27428;SDS011;14881;48.092;11.574;2022-12-18T04:54:24;74.32;;;30.67;;
27428;SDS011;14881;48.092;11.574;2022-12-18T04:56:52;70.05;;;30.17;;
27428;SDS011;14881;48.092;11.574;2022-12-18T04:59:20;69.15;;;29.80;;
27428;SDS011;14881;48.092;11.574;2022-12-18T05:01:48;76.72;;;29.88;;
27428;SDS011;14881;48.092;11.574;2022-12-18T05:04:18;71.50;;;29.15;;
27428;SDS011;14881;48.092;11.574;2022-12-18T05:06:45;72.60;;;29.45;;
27428;SDS011;14881;48.092;11.574;2022-12-18T05:09:13;68.00;;;29.95;;
27428;SDS011;14881;48.092;11.574;2022-12-18T05:11:41;74.10;;;30.42;;
27428;SDS011;14881;48.092;11.574;2022-12-18T05:14:11;80.63;;;31.15;;
27428;SDS011;14881;48.092;11.574;2022-12-18T05:16:39;71.88;;;28.98;;
27428;SDS011;14881;48.092;11.574;2022-12-18T05:19:07;83.40;;;30.90;;
27428;SDS011;14881;48.092;11.574;2022-12-18T05:21:36;70.85;;;29.75;;
27428;SDS011;14881;48.092;11.574;2022-12-18T05:24:04;63.38;;;28.60;;
27428;SDS011;14881;48.092;11.574;2022-12-18T05:26:32;68.30;;;28.60;;
27428;SDS011;14881;48.092;11.574;2022-12-18T05:28:59;70.68;;;28.75;;
27428;SDS011;14881;48.092;11.574;2022-12-18T05:31:27;69.70;;;29.42;;
27428;SDS011;14881;48.092;11.574;2022-12-18T05:34:01;69.35;;;29.17;;
27428;SDS011;14881;48.092;11.574;2022-12-18T05:36:28;71.38;;;29.48;;
27428;SDS011;14881;48.092;11.574;2022-12-18T05:38:57;67.47;;;27.17;;
27428;SDS011;14881;48.092;11.574;2022-12-18T05:41:26;67.82;;;28.42;;
27428;SDS011;14881;48.092;11.574;2022-12-18T05:43:53;63.58;;;28.63;;
27428;SDS011;14881;48.092;11.574;2022-12-18T05:46:21;59.97;;;26.75;;
27428;SDS011;14881;48.092;11.574;2022-12-18T05:48:50;67.63;;;28.83;;
27428;SDS011;14881;48.092;11.574;2022-12-18T05:51:19;69.38;;;29.75;;
27428;SDS011;14881;48.092;11.574;2022-12-18T05:53:48;69.00;;;28.92;;
27428;SDS011;14881;48.092;11.574;2022-12-18T05:56:18;68.63;;;28.98;;
27428;SDS011;14881;48.092;11.574;2022-12-18T05:58:47;74.97;;;30.38;;
27428;SDS011;14881;48.092;11.574;2022-12-18T06:01:15;63.15;;;28.95;;
27428;SDS011;14881;48.092;11.574;2022-12-18T06:03:45;64.93;;;26.92;;
27428;SDS011;14881;48.092;11.574;2022-12-18T06:06:13;64.40;;;25.17;;
27428;SDS011;14881;48.092;11.574;2022-12-18T06:08:42;61.35;;;26.75;;
27428;SDS011;14881;48.092;11.574;2022-12-18T06:11:12;64.32;;;27.98;;
27428;SDS011;14881;48.092;11.574;2022-12-18T06:13:41;63.13;;;27.83;;
27428;SDS011;14881;48.092;11.574;2022-12-18T06:16:09;72.20;;;29.27;;
27428;SDS011;14881;48.092;11.574;2022-12-18T06:18:36;67.22;;;29.83;;
27428;SDS011;14881;48.092;11.574;2022-12-18T06:21:04;67.30;;;28.30;;
27428;SDS011;14881;48.092;11.574;2022-12-18T06:23:32;61.58;;;28.00;;
27428;SDS011;14881;48.092;11.574;2022-12-18T06:26:03;72.90;;;30.23;;
27428;SDS011;14881;48.092;11.574;2022-12-18T06:28:31;69.35;;;29.80;;
27428;SDS011;14881;48.092;11.574;2022-12-18T06:31:00;64.50;;;28.85;;
27428;SDS011;14881;48.092;11.574;2022-12-18T06:33:30;65.43;;;28.00;;
27428;SDS011;14881;48.092;11.574;2022-12-18T06:35:59;66.97;;;28.10;;
27428;SDS011;14881;48.092;11.574;2022-12-18T06:38:27;72.03;;;28.85;;
27428;SDS011;14881;48.092;11.574;2022-12-18T06:40:55;67.43;;;29.55;;
27428;SDS011;14881;48.092;11.574;2022-12-18T06:43:23;68.88;;;28.20;;
27428;SDS011;14881;48.092;11.574;2022-12-18T06:45:50;64.78;;;27.55;;
27428;SDS011;14881;48.092;11.574;2022-12-18T06:48:20;64.28;;;27.13;;
27428;SDS011;14881;48.092;11.574;2022-12-18T06:50:48;65.43;;;27.60;;
27428;SDS011;14881;48.092;11.574;2022-12-18T06:53:15;66.50;;;27.38;;
27428;SDS011;14881;48.092;11.574;2022-12-18T06:55:43;68.85;;;28.23;;
27428;SDS011;14881;48.092;11.574;2022-12-18T06:58:11;69.78;;;29.33;;
27428;SDS011;14881;48.092;11.574;2022-12-18T07:00:39;67.32;;;28.25;;
27428;SDS011;14881;48.092;11.574;2022-12-18T07:03:07;69.47;;;29.10;;
27428;SDS011;14881;48.092;11.574;2022-12-18T07:05:40;67.60;;;26.77;;
27428;SDS011;14881;48.092;11.574;2022-12-18T07:08:08;66.68;;;26.60;;
27428;SDS011;14881;48.092;11.574;2022-12-18T07:10:40;68.30;;;28.08;;
27428;SDS011;14881;48.092;11.574;2022-12-18T07:13:14;66.88;;;27.95;;
27428;SDS011;14881;48.092;11.574;2022-12-18T07:15:42;63.33;;;26.73;;
27428;SDS011;14881;48.092;11.574;2022-12-18T07:18:10;63.72;;;28.17;;
27428;SDS011;14881;48.092;11.574;2022-12-18T07:20:40;60.28;;;26.65;;
27428;SDS011;14881;48.092;11.574;2022-12-18T07:23:07;62.67;;;26.58;;
27428;SDS011;14881;48.092;11.574;2022-12-18T07:25:35;59.42;;;26.83;;
27428;SDS011;14881;48.092;11.574;2022-12-18T07:28:03;64.07;;;26.52;;
27428;SDS011;14881;48.092;11.574;2022-12-18T07:30:32;65.78;;;28.33;;
27428;SDS011;14881;48.092;11.574;2022-12-18T07:33:00;64.78;;;29.10;;
27428;SDS011;14881;48.092;11.574;2022-12-18T07:35:27;68.45;;;27.95;;
27428;SDS011;14881;48.092;11.574;2022-12-18T07:37:56;68.57;;;28.02;;
27428;SDS011;14881;48.092;11.574;2022-12-18T07:40:24;65.95;;;28.48;;
27428;SDS011;14881;48.092;11.574;2022-12-18T07:42:52;63.47;;;26.42;;
27428;SDS011;14881;48.092;11.574;2022-12-18T07:45:19;60.80;;;26.35;;
27428;SDS011;14881;48.092;11.574;2022-12-18T07:47:47;60.22;;;26.17;;
27428;SDS011;14881;48.092;11.574;2022-12-18T07:50:15;62.95;;;27.67;;
27428;SDS011;14881;48.092;11.574;2022-12-18T07:52:42;66.47;;;27.15;;
27428;SDS011;14881;48.092;11.574;2022-12-18T07:55:11;64.43;;;27.17;;
27428;SDS011;14881;48.092;11.574;2022-12-18T07:57:39;62.13;;;26.95;;
27428;SDS011;14881;48.092;11.574;2022-12-18T08:00:16;62.78;;;27.02;;
27428;SDS011;14881;48.092;11.574;2022-12-18T08:02:46;65.88;;;29.00;;
27428;SDS011;14881;48.092;11.574;2022-12-18T08:05:14;58.85;;;25.55;;
27428;SDS011;14881;48.092;11.574;2022-12-18T08:07:42;63.25;;;25.90;;
27428;SDS011;14881;48.092;11.574;2022-12-18T08:10:11;59.60;;;25.65;;
27428;SDS011;14881;48.092;11.574;2022-12-18T08:12:39;60.80;;;25.83;;
27428;SDS011;14881;48.092;11.574;2022-12-18T08:15:07;64.60;;;26.77;;
27428;SDS011;14881;48.092;11.574;2022-12-18T08:17:35;56.70;;;24.98;;
27428;SDS011;14881;48.092;11.574;2022-12-18T08:20:03;65.90;;;26.00;;
27428;SDS011;14881;48.092;11.574;2022-12-18T08:22:33;61.22;;;24.90;;
27428;SDS011;14881;48.092;11.574;2022-12-18T08:25:01;62.17;;;25.45;;
27428;SDS011;14881;48.092;11.574;2022-12-18T08:27:31;60.20;;;24.70;;
27428;SDS011;14881;48.092;11.574;2022-12-18T08:29:59;58.05;;;25.65;;
27428;SDS011;14881;48.092;11.574;2022-12-18T08:32:27;63.47;;;24.65;;
27428;SDS011;14881;48.092;11.574;2022-12-18T08:34:55;50.30;;;21.70;;
27428;SDS011;14881;48.092;11.574;2022-12-18T08:37:23;53.72;;;23.23;;
27428;SDS011;14881;48.092;11.574;2022-12-18T08:39:50;59.90;;;26.90;;
27428;SDS011;14881;48.092;11.574;2022-12-18T08:42:18;53.72;;;24.60;;
27428;SDS011;14881;48.092;11.574;2022-12-18T08:45:05;52.53;;;22.60;;
27428;SDS011;14881;48.092;11.574;2022-12-18T08:47:33;63.47;;;25.05;;
27428;SDS011;14881;48.092;11.574;2022-12-18T08:50:01;59.78;;;25.33;;
27428;SDS011;14881;48.092;11.574;2022-12-18T08:52:31;62.40;;;25.10;;
27428;SDS011;14881;48.092;11.574;2022-12-18T08:54:58;56.17;;;25.23;;
27428;SDS011;14881;48.092;11.574;2022-12-18T08:57:26;54.03;;;24.10;;
27428;SDS011;14881;48.092;11.574;2022-12-18T08:59:54;57.03;;;25.58;;
27428;SDS011;14881;48.092;11.574;2022-12-18T09:02:23;52.05;;;23.17;;
27428;SDS011;14881;48.092;11.574;2022-12-18T09:04:51;58.97;;;23.85;;
27428;SDS011;14881;48.092;11.574;2022-12-18T09:07:23;52.83;;;22.50;;
27428;SDS011;14881;48.092;11.574;2022-12-18T09:09:50;53.45;;;23.00;;
27428;SDS011;14881;48.092;11.574;2022-12-18T09:12:18;57.92;;;24.45;;
27428;SDS011;14881;48.092;11.574;2022-12-18T09:14:46;57.80;;;23.42;;
27428;SDS011;14881;48.092;11.574;2022-12-18T09:17:14;52.17;;;22.75;;
27428;SDS011;14881;48.092;11.574;2022-12-18T09:19:43;48.75;;;21.50;;
27428;SDS011;14881;48.092;11.574;2022-12-18T09:22:11;55.50;;;22.38;;
27428;SDS011;14881;48.092;11.574;2022-12-18T09:24:39;55.38;;;22.52;;
27428;SDS011;14881;48.092;11.574;2022-12-18T09:27:06;51.70;;;23.65;;
27428;SDS011;14881;48.092;11.574;2022-12-18T09:29:34;54.75;;;22.90;;
27428;SDS011;14881;48.092;11.574;2022-12-18T09:32:02;50.42;;;22.63;;
27428;SDS011;14881;48.092;11.574;2022-12-18T09:34:29;54.28;;;23.30;;
27428;SDS011;14881;48.092;11.574;2022-12-18T09:36:58;53.22;;;23.23;;
27428;SDS011;14881;48.092;11.574;2022-12-18T09:39:26;46.88;;;21.17;;
27428;SDS011;14881;48.092;11.574;2022-12-18T09:41:54;42.35;;;20.15;;
27428;SDS011;14881;48.092;11.574;2022-12-18T09:44:24;51.95;;;23.08;;
27428;SDS011;14881;48.092;11.574;2022-12-18T09:47:01;51.90;;;23.67;;
27428;SDS011;14881;48.092;11.574;2022-12-18T09:49:35;49.30;;;22.48;;
27428;SDS011;14881;48.092;11.574;2022-12-18T09:52:11;51.30;;;21.30;;
27428;SDS011;14881;48.092;11.574;2022-12-18T09:54:43;52.55;;;23.63;;
27428;SDS011;14881;48.092;11.574;2022-12-18T09:57:15;49.97;;;23.15;;
27428;SDS011;14881;48.092;11.574;2022-12-18T09:59:46;53.67;;;24.75;;
27428;SDS011;14881;48.092;11.574;2022-12-18T10:02:18;50.80;;;24.05;;
27428;SDS011;14881;48.092;11.574;2022-12-18T10:04:51;50.83;;;22.83;;
27428;SDS011;14881;48.092;11.574;2022-12-18T10:07:30;46.28;;;21.75;;
27428;SDS011;14881;48.092;11.574;2022-12-18T10:10:06;48.17;;;22.17;;
27428;SDS011;14881;48.092;11.574;2022-12-18T10:12:42;46.55;;;21.70;;
27428;SDS011;14881;48.092;11.574;2022-12-18T10:15:19;53.05;;;23.10;;
27428;SDS011;14881;48.092;11.574;2022-12-18T10:17:56;50.80;;;21.75;;
27428;SDS011;14881;48.092;11.574;2022-12-18T10:20:31;52.63;;;21.90;;
27428;SDS011;14881;48.092;11.574;2022-12-18T10:23:10;49.95;;;22.10;;
27428;SDS011;14881;48.092;11.574;2022-12-18T10:25:47;54.30;;;23.05;;
27428;SDS011;14881;48.092;11.574;2022-12-18T10:28:21;101.10;;;40.47;;
27428;SDS011;14881;48.092;11.574;2022-12-18T10:30:50;58.55;;;25.30;;
27428;SDS011;14881;48.092;11.574;2022-12-18T10:33:18;54.67;;;25.42;;
27428;SDS011;14881;48.092;11.574;2022-12-18T10:35:48;49.97;;;22.15;;
27428;SDS011;14881;48.092;11.574;2022-12-18T10:38:22;50.58;;;23.05;;
27428;SDS011;14881;48.092;11.574;2022-12-18T10:40:53;56.53;;;23.60;;
27428;SDS011;14881;48.092;11.574;2022-12-18T10:43:23;51.67;;;24.08;;
27428;SDS011;14881;48.092;11.574;2022-12-18T10:46:04;49.35;;;23.98;;
27428;SDS011;14881;48.092;11.574;2022-12-18T10:48:47;53.88;;;24.08;;
27428;SDS011;14881;48.092;11.574;2022-12-18T10:51:19;48.10;;;21.70;;
27428;SDS011;14881;48.092;11.574;2022-12-18T10:53:54;45.05;;;22.38;;
27428;SDS011;14881;48.092;11.574;2022-12-18T10:56:25;49.30;;;22.67;;
27428;SDS011;14881;48.092;11.574;2022-12-18T10:58:55;50.55;;;23.40;;
27428;SDS011;14881;48.092;11.574;2022-12-18T11:01:25;50.17;;;22.30;;
27428;SDS011;14881;48.092;11.574;2022-12-18T11:04:00;49.95;;;21.83;;
27428;SDS011;14881;48.092;11.574;2022-12-18T11:06:35;45.90;;;20.60;;
27428;SDS011;14881;48.092;11.574;2022-12-18T11:09:22;46.88;;;22.38;;
27428;SDS011;14881;48.092;11.574;2022-12-18T11:11:51;59.22;;;25.38;;
27428;SDS011;14881;48.092;11.574;2022-12-18T11:14:21;44.53;;;21.08;;
27428;SDS011;14881;48.092;11.574;2022-12-18T11:16:51;46.30;;;21.30;;
27428;SDS011;14881;48.092;11.574;2022-12-18T11:19:40;45.67;;;21.90;;
27428;SDS011;14881;48.092;11.574;2022-12-18T11:22:17;51.28;;;22.08;;
27428;SDS011;14881;48.092;11.574;2022-12-18T11:24:53;46.38;;;21.83;;
27428;SDS011;14881;48.092;11.574;2022-12-18T11:27:47;45.08;;;20.23;;
27428;SDS011;14881;48.092;11.574;2022-12-18T11:30:20;45.90;;;20.90;;
27428;SDS011;14881;48.092;11.574;2022-12-18T11:32:51;54.45;;;23.58;;
27428;SDS011;14881;48.092;11.574;2022-12-18T11:35:25;45.42;;;21.55;;
27428;SDS011;14881;48.092;11.574;2022-12-18T11:38:11;45.35;;;20.88;;
27428;SDS011;14881;48.092;11.574;2022-12-18T11:40:52;48.53;;;22.27;;
27428;SDS011;14881;48.092;11.574;2022-12-18T11:43:27;49.25;;;21.27;;
27428;SDS011;14881;48.092;11.574;2022-12-18T11:45:59;47.65;;;20.98;;
27428;SDS011;14881;48.092;11.574;2022-12-18T11:48:32;47.67;;;21.73;;
27428;SDS011;14881;48.092;11.574;2022-12-18T11:51:05;43.75;;;20.95;;
27428;SDS011;14881;48.092;11.574;2022-12-18T11:53:39;45.53;;;22.08;;
27428;SDS011;14881;48.092;11.574;2022-12-18T11:56:13;43.28;;;21.05;;
27428;SDS011;14881;48.092;11.574;2022-12-18T11:58:56;45.22;;;22.23;;
27428;SDS011;14881;48.092;11.574;2022-12-18T12:01:35;51.50;;;23.08;;
27428;SDS011;14881;48.092;11.574;2022-12-18T12:04:24;48.75;;;23.13;;
27428;SDS011;14881;48.092;11.574;2022-12-18T12:07:18;45.72;;;21.95;;
27428;SDS011;14881;48.092;11.574;2022-12-18T12:09:56;54.05;;;24.70;;
27428;SDS011;14881;48.092;11.574;2022-12-18T12:12:39;50.78;;;23.02;;
27428;SDS011;14881;48.092;11.574;2022-12-18T12:15:25;43.05;;;21.77;;
27428;SDS011;14881;48.092;11.574;2022-12-18T12:18:05;44.53;;;20.48;;
27428;SDS011;14881;48.092;11.574;2022-12-18T12:20:43;39.80;;;20.58;;
27428;SDS011;14881;48.092;11.574;2022-12-18T12:23:20;45.95;;;21.42;;
27428;SDS011;14881;48.092;11.574;2022-12-18T12:25:56;43.90;;;20.67;;
27428;SDS011;14881;48.092;11.574;2022-12-18T12:28:39;44.22;;;21.23;;
27428;SDS011;14881;48.092;11.574;2022-12-18T12:31:23;44.45;;;20.58;;
27428;SDS011;14881;48.092;11.574;2022-12-18T12:34:05;44.65;;;20.08;;
27428;SDS011;14881;48.092;11.574;2022-12-18T12:36:42;44.03;;;20.27;;
27428;SDS011;14881;48.092;11.574;2022-12-18T12:39:20;45.40;;;20.60;;
27428;SDS011;14881;48.092;11.574;2022-12-18T12:41:52;47.13;;;22.77;;
27428;SDS011;14881;48.092;11.574;2022-12-18T12:44:39;42.90;;;19.95;;
27428;SDS011;14881;48.092;11.574;2022-12-18T12:47:14;43.30;;;20.15;;
27428;SDS011;14881;48.092;11.574;2022-12-18T12:49:47;46.60;;;21.08;;
27428;SDS011;14881;48.092;11.574;2022-12-18T12:52:17;45.20;;;20.55;;
27428;SDS011;14881;48.092;11.574;2022-12-18T12:54:54;45.90;;;21.17;;
27428;SDS011;14881;48.092;11.574;2022-12-18T12:57:24;45.15;;;21.05;;
27428;SDS011;14881;48.092;11.574;2022-12-18T13:00:00;43.88;;;19.40;;
27428;SDS011;14881;48.092;11.574;2022-12-18T13:02:33;47.30;;;21.63;;
27428;SDS011;14881;48.092;11.574;2022-12-18T13:05:11;42.97;;;19.80;;
27428;SDS011;14881;48.092;11.574;2022-12-18T13:07:50;46.58;;;20.35;;
27428;SDS011;14881;48.092;11.574;2022-12-18T13:10:24;48.50;;;21.42;;
27428;SDS011;14881;48.092;11.574;2022-12-18T13:13:04;44.70;;;21.17;;
27428;SDS011;14881;48.092;11.574;2022-12-18T13:15:37;45.03;;;22.23;;
27428;SDS011;14881;48.092;11.574;2022-12-18T13:18:12;47.10;;;21.13;;
27428;SDS011;14881;48.092;11.574;2022-12-18T13:20:44;43.63;;;21.23;;
27428;SDS011;14881;48.092;11.574;2022-12-18T13:23:31;47.50;;;21.65;;
27428;SDS011;14881;48.092;11.574;2022-12-18T13:28:58;42.05;;;21.02;;
27428;SDS011;14881;48.092;11.574;2022-12-18T13:34:35;42.85;;;20.80;;
27428;SDS011;14881;48.092;11.574;2022-12-18T13:43:30;43.85;;;20.08;;
27428;SDS011;14881;48.092;11.574;2022-12-18T13:46:01;48.55;;;20.98;;
27428;SDS011;14881;48.092;11.574;2022-12-18T13:48:48;51.67;;;21.73;;
27428;SDS011;14881;48.092;11.574;2022-12-18T13:51:26;45.42;;;21.08;;
27428;SDS011;14881;48.092;11.574;2022-12-18T13:53:56;45.05;;;21.08;;
27428;SDS011;14881;48.092;11.574;2022-12-18T13:56:27;44.25;;;20.92;;
27428;SDS011;14881;48.092;11.574;2022-12-18T13:59:05;44.42;;;19.65;;
27428;SDS011;14881;48.092;11.574;2022-12-18T14:01:42;44.55;;;20.83;;
27428;SDS011;14881;48.092;11.574;2022-12-18T14:04:19;43.05;;;20.23;;
27428;SDS011;14881;48.092;11.574;2022-12-18T14:06:55;48.47;;;21.65;;
27428;SDS011;14881;48.092;11.574;2022-12-18T14:09:26;50.15;;;23.13;;
27428;SDS011;14881;48.092;11.574;2022-12-18T14:11:57;52.47;;;22.70;;
27428;SDS011;14881;48.092;11.574;2022-12-18T14:14:44;58.00;;;24.73;;
27428;SDS011;14881;48.092;11.574;2022-12-18T14:17:16;49.28;;;22.17;;
27428;SDS011;14881;48.092;11.574;2022-12-18T14:19:47;50.20;;;22.77;;
27428;SDS011;14881;48.092;11.574;2022-12-18T14:22:18;48.88;;;22.73;;
27428;SDS011;14881;48.092;11.574;2022-12-18T14:25:04;50.30;;;22.20;;
27428;SDS011;14881;48.092;11.574;2022-12-18T14:27:41;50.95;;;22.75;;
27428;SDS011;14881;48.092;11.574;2022-12-18T14:30:22;48.42;;;21.85;;
27428;SDS011;14881;48.092;11.574;2022-12-18T14:33:05;50.65;;;21.38;;
27428;SDS011;14881;48.092;11.574;2022-12-18T14:35:37;54.15;;;23.98;;
27428;SDS011;14881;48.092;11.574;2022-12-18T14:38:15;55.53;;;24.70;;
27428;SDS011;14881;48.092;11.574;2022-12-18T14:40:47;55.13;;;25.02;;
27428;SDS011;14881;48.092;11.574;2022-12-18T14:43:20;53.20;;;24.80;;
27428;SDS011;14881;48.092;11.574;2022-12-18T14:45:47;53.05;;;25.02;;
27428;SDS011;14881;48.092;11.574;2022-12-18T14:48:16;52.03;;;23.83;;
27428;SDS011;14881;48.092;11.574;2022-12-18T14:50:56;51.60;;;24.23;;